sensor_id;sensor_type;location;lat;lon;timestamp;P1;durP1;ratioP1;P2;durP2;ratioP2
18973;SDS011;9621;48.690;9.466;2022-09-13T00:01:46;6.47;;;3.70;;
18973;SDS011;9621;48.690;9.466;2022-09-13T00:04:12;5.40;;;3.30;;
18973;SDS011;9621;48.690;9.466;2022-09-13T00:06:39;3.80;;;3.40;;
18973;SDS011;9621;48.690;9.466;2022-09-13T00:09:06;4.78;;;3.42;;
18973;SDS011;9621;48.690;9.466;2022-09-13T00:11:33;4.85;;;2.95;;
18973;SDS011;9621;48.690;9.466;2022-09-13T00:14:00;5.55;;;3.38;;
18973;SDS011;9621;48.690;9.466;2022-09-13T00:16:30;3.10;;;2.80;;
18973;SDS011;9621;48.690;9.466;2022-09-13T00:18:58;5.50;;;3.08;;
18973;SDS011;9621;48.690;9.466;2022-09-13T00:21:25;4.32;;;3.72;;
18973;SDS011;9621;48.690;9.466;2022-09-13T00:23:53;4.50;;;3.20;;
18973;SDS011;9621;48.690;9.466;2022-09-13T00:26:21;5.97;;;3.60;;
18973;SDS011;9621;48.690;9.466;2022-09-13T00:28:50;5.43;;;3.53;;
18973;SDS011;9621;48.690;9.466;2022-09-13T00:31:18;4.80;;;3.25;;
18973;SDS011;9621;48.690;9.466;2022-09-13T00:33:48;3.80;;;3.20;;
18973;SDS011;9621;48.690;9.466;2022-09-13T00:36:16;5.63;;;3.13;;
18973;SDS011;9621;48.690;9.466;2022-09-13T00:38:43;3.30;;;3.00;;
18973;SDS011;9621;48.690;9.466;2022-09-13T00:41:11;8.63;;;3.47;;
18973;SDS011;9621;48.690;9.466;2022-09-13T00:43:42;8.75;;;3.33;;
18973;SDS011;9621;48.690;9.466;2022-09-13T00:46:12;3.33;;;3.03;;
18973;SDS011;9621;48.690;9.466;2022-09-13T00:48:43;5.15;;;3.00;;
18973;SDS011;9621;48.690;9.466;2022-09-13T00:51:12;5.75;;;3.58;;
18973;SDS011;9621;48.690;9.466;2022-09-13T00:53:40;4.57;;;2.90;;
18973;SDS011;9621;48.690;9.466;2022-09-13T00:56:10;4.18;;;3.42;;
18973;SDS011;9621;48.690;9.466;2022-09-13T00:58:43;4.07;;;3.00;;
18973;SDS011;9621;48.690;9.466;2022-09-13T01:01:13;3.50;;;3.20;;
18973;SDS011;9621;48.690;9.466;2022-09-13T01:03:42;6.28;;;3.28;;
18973;SDS011;9621;48.690;9.466;2022-09-13T01:06:14;4.97;;;3.58;;
18973;SDS011;9621;48.690;9.466;2022-09-13T01:08:45;4.45;;;3.42;;
18973;SDS011;9621;48.690;9.466;2022-09-13T01:11:15;5.47;;;3.50;;
18973;SDS011;9621;48.690;9.466;2022-09-13T01:13:49;4.65;;;3.70;;
18973;SDS011;9621;48.690;9.466;2022-09-13T01:16:16;6.47;;;3.42;;
18973;SDS011;9621;48.690;9.466;2022-09-13T01:18:43;6.93;;;3.80;;
18973;SDS011;9621;48.690;9.466;2022-09-13T01:24:29;8.75;;;4.10;;
18973;SDS011;9621;48.690;9.466;2022-09-13T01:27:31;5.53;;;3.22;;
18973;SDS011;9621;48.690;9.466;2022-09-13T01:30:10;5.82;;;3.47;;
18973;SDS011;9621;48.690;9.466;2022-09-13T01:32:51;5.95;;;3.30;;
18973;SDS011;9621;48.690;9.466;2022-09-13T01:35:31;3.75;;;3.35;;
18973;SDS011;9621;48.690;9.466;2022-09-13T01:38:08;5.13;;;3.35;;
18973;SDS011;9621;48.690;9.466;2022-09-13T01:40:47;3.40;;;3.10;;
18973;SDS011;9621;48.690;9.466;2022-09-13T01:43:27;4.43;;;3.33;;
18973;SDS011;9621;48.690;9.466;2022-09-13T01:46:07;3.47;;;3.10;;
18973;SDS011;9621;48.690;9.466;2022-09-13T01:48:43;5.75;;;3.50;;
18973;SDS011;9621;48.690;9.466;2022-09-13T01:51:20;5.07;;;3.15;;
18973;SDS011;9621;48.690;9.466;2022-09-13T01:53:54;3.50;;;3.10;;
18973;SDS011;9621;48.690;9.466;2022-09-13T01:56:32;3.83;;;2.90;;
18973;SDS011;9621;48.690;9.466;2022-09-13T01:59:05;4.88;;;3.58;;
18973;SDS011;9621;48.690;9.466;2022-09-13T02:01:41;6.25;;;3.83;;
18973;SDS011;9621;48.690;9.466;2022-09-13T02:04:14;5.60;;;3.38;;
18973;SDS011;9621;48.690;9.466;2022-09-13T02:06:45;4.30;;;3.60;;
18973;SDS011;9621;48.690;9.466;2022-09-13T02:09:16;5.88;;;4.20;;
18973;SDS011;9621;48.690;9.466;2022-09-13T02:11:46;8.00;;;4.07;;
18973;SDS011;9621;48.690;9.466;2022-09-13T02:14:17;5.78;;;4.05;;
18973;SDS011;9621;48.690;9.466;2022-09-13T02:16:48;5.20;;;3.63;;
18973;SDS011;9621;48.690;9.466;2022-09-13T02:19:21;6.78;;;3.72;;
18973;SDS011;9621;48.690;9.466;2022-09-13T02:21:53;4.40;;;3.45;;
18973;SDS011;9621;48.690;9.466;2022-09-13T02:24:25;5.15;;;4.25;;
18973;SDS011;9621;48.690;9.466;2022-09-13T02:26:57;6.95;;;3.47;;
18973;SDS011;9621;48.690;9.466;2022-09-13T02:29:27;5.63;;;3.72;;
18973;SDS011;9621;48.690;9.466;2022-09-13T02:31:58;4.75;;;3.58;;
18973;SDS011;9621;48.690;9.466;2022-09-13T02:34:32;7.28;;;3.50;;
18973;SDS011;9621;48.690;9.466;2022-09-13T02:37:04;6.35;;;3.55;;
18973;SDS011;9621;48.690;9.466;2022-09-13T02:39:34;4.47;;;3.55;;
18973;SDS011;9621;48.690;9.466;2022-09-13T02:42:05;3.83;;;3.35;;
18973;SDS011;9621;48.690;9.466;2022-09-13T02:44:37;5.30;;;3.78;;
18973;SDS011;9621;48.690;9.466;2022-09-13T02:47:10;5.07;;;3.47;;
18973;SDS011;9621;48.690;9.466;2022-09-13T02:49:48;5.72;;;4.10;;
18973;SDS011;9621;48.690;9.466;2022-09-13T02:52:23;11.02;;;4.65;;
18973;SDS011;9621;48.690;9.466;2022-09-13T02:55:03;9.65;;;3.90;;
18973;SDS011;9621;48.690;9.466;2022-09-13T02:57:39;5.72;;;3.92;;
18973;SDS011;9621;48.690;9.466;2022-09-13T03:00:14;7.13;;;3.75;;
18973;SDS011;9621;48.690;9.466;2022-09-13T03:02:42;4.78;;;3.45;;
18973;SDS011;9621;48.690;9.466;2022-09-13T03:05:12;6.90;;;4.00;;
18973;SDS011;9621;48.690;9.466;2022-09-13T03:07:39;6.95;;;3.90;;
18973;SDS011;9621;48.690;9.466;2022-09-13T03:10:06;7.40;;;4.10;;
18973;SDS011;9621;48.690;9.466;2022-09-13T03:15:50;6.25;;;3.70;;
18973;SDS011;9621;48.690;9.466;2022-09-13T03:18:30;9.60;;;4.03;;
18973;SDS011;9621;48.690;9.466;2022-09-13T03:21:13;4.80;;;3.83;;
18973;SDS011;9621;48.690;9.466;2022-09-13T03:23:53;7.32;;;4.35;;
18973;SDS011;9621;48.690;9.466;2022-09-13T03:26:40;5.78;;;4.07;;
18973;SDS011;9621;48.690;9.466;2022-09-13T03:29:20;5.38;;;4.32;;
18973;SDS011;9621;48.690;9.466;2022-09-13T03:31:58;6.35;;;4.78;;
18973;SDS011;9621;48.690;9.466;2022-09-13T03:34:41;5.55;;;4.28;;
18973;SDS011;9621;48.690;9.466;2022-09-13T03:37:15;6.95;;;3.83;;
18973;SDS011;9621;48.690;9.466;2022-09-13T03:39:51;7.15;;;3.65;;
18973;SDS011;9621;48.690;9.466;2022-09-13T03:42:22;4.72;;;3.60;;
18973;SDS011;9621;48.690;9.466;2022-09-13T03:44:54;5.03;;;4.00;;
18973;SDS011;9621;48.690;9.466;2022-09-13T03:47:22;4.60;;;3.67;;
18973;SDS011;9621;48.690;9.466;2022-09-13T03:49:55;7.10;;;3.90;;
18973;SDS011;9621;48.690;9.466;2022-09-13T03:52:22;6.32;;;3.90;;
18973;SDS011;9621;48.690;9.466;2022-09-13T03:54:49;5.55;;;3.60;;
18973;SDS011;9621;48.690;9.466;2022-09-13T03:57:18;5.93;;;4.20;;
18973;SDS011;9621;48.690;9.466;2022-09-13T03:59:50;6.68;;;4.38;;
18973;SDS011;9621;48.690;9.466;2022-09-13T04:02:23;8.20;;;4.25;;
18973;SDS011;9621;48.690;9.466;2022-09-13T04:04:50;5.38;;;4.28;;
18973;SDS011;9621;48.690;9.466;2022-09-13T04:07:19;6.53;;;4.15;;
18973;SDS011;9621;48.690;9.466;2022-09-13T04:09:48;8.10;;;4.40;;
18973;SDS011;9621;48.690;9.466;2022-09-13T04:12:16;5.78;;;4.72;;
18973;SDS011;9621;48.690;9.466;2022-09-13T04:14:43;7.13;;;4.40;;
18973;SDS011;9621;48.690;9.466;2022-09-13T04:17:10;4.75;;;4.00;;
18973;SDS011;9621;48.690;9.466;2022-09-13T04:19:38;8.38;;;4.65;;
18973;SDS011;9621;48.690;9.466;2022-09-13T04:22:06;6.50;;;4.10;;
18973;SDS011;9621;48.690;9.466;2022-09-13T04:24:33;6.13;;;4.28;;
18973;SDS011;9621;48.690;9.466;2022-09-13T04:27:00;5.63;;;4.68;;
18973;SDS011;9621;48.690;9.466;2022-09-13T04:29:27;5.53;;;4.60;;
18973;SDS011;9621;48.690;9.466;2022-09-13T04:31:55;8.77;;;5.05;;
18973;SDS011;9621;48.690;9.466;2022-09-13T04:34:22;7.97;;;4.18;;
18973;SDS011;9621;48.690;9.466;2022-09-13T04:36:50;5.35;;;3.92;;
18973;SDS011;9621;48.690;9.466;2022-09-13T04:39:19;4.88;;;4.03;;
18973;SDS011;9621;48.690;9.466;2022-09-13T04:41:48;4.82;;;3.85;;
18973;SDS011;9621;48.690;9.466;2022-09-13T04:44:16;7.00;;;4.25;;
18973;SDS011;9621;48.690;9.466;2022-09-13T04:46:45;4.93;;;3.85;;
18973;SDS011;9621;48.690;9.466;2022-09-13T04:49:13;4.78;;;3.90;;
18973;SDS011;9621;48.690;9.466;2022-09-13T04:51:40;5.05;;;4.30;;
18973;SDS011;9621;48.690;9.466;2022-09-13T04:54:08;5.78;;;4.30;;
18973;SDS011;9621;48.690;9.466;2022-09-13T04:56:37;5.57;;;4.38;;
18973;SDS011;9621;48.690;9.466;2022-09-13T04:59:04;5.85;;;4.45;;
18973;SDS011;9621;48.690;9.466;2022-09-13T05:01:32;4.90;;;4.07;;
18973;SDS011;9621;48.690;9.466;2022-09-13T05:03:59;4.47;;;4.00;;
18973;SDS011;9621;48.690;9.466;2022-09-13T05:06:26;5.53;;;4.32;;
18973;SDS011;9621;48.690;9.466;2022-09-13T05:08:54;4.75;;;4.20;;
18973;SDS011;9621;48.690;9.466;2022-09-13T05:11:21;5.68;;;4.13;;
18973;SDS011;9621;48.690;9.466;2022-09-13T05:13:50;6.53;;;4.20;;
18973;SDS011;9621;48.690;9.466;2022-09-13T05:16:19;8.48;;;4.03;;
18973;SDS011;9621;48.690;9.466;2022-09-13T05:18:46;7.18;;;4.20;;
18973;SDS011;9621;48.690;9.466;2022-09-13T05:21:13;5.18;;;4.03;;
18973;SDS011;9621;48.690;9.466;2022-09-13T05:23:40;11.98;;;4.03;;
18973;SDS011;9621;48.690;9.466;2022-09-13T05:26:07;4.90;;;4.20;;
18973;SDS011;9621;48.690;9.466;2022-09-13T05:28:34;9.52;;;4.40;;
18973;SDS011;9621;48.690;9.466;2022-09-13T05:31:04;5.85;;;3.80;;
18973;SDS011;9621;48.690;9.466;2022-09-13T05:33:32;8.95;;;4.00;;
18973;SDS011;9621;48.690;9.466;2022-09-13T05:36:01;6.30;;;3.88;;
18973;SDS011;9621;48.690;9.466;2022-09-13T05:38:29;7.25;;;4.25;;
18973;SDS011;9621;48.690;9.466;2022-09-13T05:40:56;4.05;;;3.50;;
18973;SDS011;9621;48.690;9.466;2022-09-13T05:43:24;8.05;;;3.95;;
18973;SDS011;9621;48.690;9.466;2022-09-13T05:45:58;7.68;;;4.10;;
18973;SDS011;9621;48.690;9.466;2022-09-13T05:48:28;4.35;;;3.60;;
18973;SDS011;9621;48.690;9.466;2022-09-13T05:50:55;5.70;;;3.10;;
18973;SDS011;9621;48.690;9.466;2022-09-13T05:53:21;6.15;;;3.33;;
18973;SDS011;9621;48.690;9.466;2022-09-13T05:55:48;4.25;;;3.00;;
18973;SDS011;9621;48.690;9.466;2022-09-13T05:58:15;4.30;;;3.60;;
18973;SDS011;9621;48.690;9.466;2022-09-13T06:00:42;4.53;;;3.38;;
18973;SDS011;9621;48.690;9.466;2022-09-13T06:03:09;5.85;;;3.28;;
18973;SDS011;9621;48.690;9.466;2022-09-13T06:05:41;5.53;;;3.55;;
18973;SDS011;9621;48.690;9.466;2022-09-13T06:08:12;7.25;;;3.70;;
18973;SDS011;9621;48.690;9.466;2022-09-13T06:10:39;6.60;;;4.00;;
18973;SDS011;9621;48.690;9.466;2022-09-13T06:13:05;5.03;;;3.65;;
18973;SDS011;9621;48.690;9.466;2022-09-13T06:15:32;6.78;;;3.78;;
18973;SDS011;9621;48.690;9.466;2022-09-13T06:17:59;6.65;;;3.70;;
18973;SDS011;9621;48.690;9.466;2022-09-13T06:20:26;4.75;;;3.70;;
18973;SDS011;9621;48.690;9.466;2022-09-13T06:22:54;3.75;;;3.35;;
18973;SDS011;9621;48.690;9.466;2022-09-13T06:25:22;3.55;;;3.25;;
18973;SDS011;9621;48.690;9.466;2022-09-13T06:27:49;5.00;;;3.28;;
18973;SDS011;9621;48.690;9.466;2022-09-13T06:30:16;3.78;;;3.15;;
18973;SDS011;9621;48.690;9.466;2022-09-13T06:32:43;3.97;;;3.30;;
18973;SDS011;9621;48.690;9.466;2022-09-13T06:35:10;7.00;;;3.45;;
18973;SDS011;9621;48.690;9.466;2022-09-13T06:37:37;5.55;;;4.28;;
18973;SDS011;9621;48.690;9.466;2022-09-13T06:40:06;6.55;;;3.83;;
18973;SDS011;9621;48.690;9.466;2022-09-13T06:42:33;6.95;;;4.60;;
18973;SDS011;9621;48.690;9.466;2022-09-13T06:45:00;6.55;;;4.70;;
18973;SDS011;9621;48.690;9.466;2022-09-13T06:47:27;9.90;;;4.45;;
18973;SDS011;9621;48.690;9.466;2022-09-13T06:49:55;8.10;;;4.65;;
18973;SDS011;9621;48.690;9.466;2022-09-13T06:52:22;6.20;;;4.57;;
18973;SDS011;9621;48.690;9.466;2022-09-13T06:54:49;6.80;;;4.43;;
18973;SDS011;9621;48.690;9.466;2022-09-13T06:57:17;8.45;;;4.68;;
18973;SDS011;9621;48.690;9.466;2022-09-13T06:59:44;6.22;;;4.18;;
18973;SDS011;9621;48.690;9.466;2022-09-13T07:02:11;6.55;;;4.65;;
18973;SDS011;9621;48.690;9.466;2022-09-13T07:04:38;6.88;;;4.35;;
18973;SDS011;9621;48.690;9.466;2022-09-13T07:07:05;8.93;;;4.90;;
18973;SDS011;9621;48.690;9.466;2022-09-13T07:09:32;11.55;;;5.45;;
18973;SDS011;9621;48.690;9.466;2022-09-13T07:11:59;11.05;;;5.10;;
18973;SDS011;9621;48.690;9.466;2022-09-13T07:14:28;8.65;;;4.72;;
18973;SDS011;9621;48.690;9.466;2022-09-13T07:16:55;12.30;;;5.10;;
18973;SDS011;9621;48.690;9.466;2022-09-13T07:19:23;7.13;;;5.05;;
18973;SDS011;9621;48.690;9.466;2022-09-13T07:21:51;10.90;;;4.90;;
18973;SDS011;9621;48.690;9.466;2022-09-13T07:24:20;6.75;;;4.85;;
18973;SDS011;9621;48.690;9.466;2022-09-13T07:26:47;6.80;;;4.72;;
18973;SDS011;9621;48.690;9.466;2022-09-13T07:29:15;7.78;;;5.20;;
18973;SDS011;9621;48.690;9.466;2022-09-13T07:31:46;8.32;;;4.82;;
18973;SDS011;9621;48.690;9.466;2022-09-13T07:34:14;7.55;;;4.28;;
18973;SDS011;9621;48.690;9.466;2022-09-13T07:36:42;4.90;;;4.07;;
18973;SDS011;9621;48.690;9.466;2022-09-13T07:39:10;7.40;;;4.25;;
18973;SDS011;9621;48.690;9.466;2022-09-13T07:41:38;4.10;;;3.70;;
18973;SDS011;9621;48.690;9.466;2022-09-13T07:44:05;10.75;;;4.00;;
18973;SDS011;9621;48.690;9.466;2022-09-13T07:46:33;7.43;;;4.30;;
18973;SDS011;9621;48.690;9.466;2022-09-13T07:49:05;5.97;;;4.07;;
18973;SDS011;9621;48.690;9.466;2022-09-13T07:51:33;5.30;;;4.13;;
18973;SDS011;9621;48.690;9.466;2022-09-13T07:54:02;6.50;;;3.90;;
18973;SDS011;9621;48.690;9.466;2022-09-13T07:56:32;8.60;;;3.90;;
18973;SDS011;9621;48.690;9.466;2022-09-13T07:59:00;8.23;;;4.05;;
18973;SDS011;9621;48.690;9.466;2022-09-13T08:01:31;6.97;;;3.90;;
18973;SDS011;9621;48.690;9.466;2022-09-13T08:04:00;6.63;;;3.83;;
18973;SDS011;9621;48.690;9.466;2022-09-13T08:06:30;10.88;;;3.92;;
18973;SDS011;9621;48.690;9.466;2022-09-13T08:08:58;4.10;;;3.40;;
18973;SDS011;9621;48.690;9.466;2022-09-13T08:11:26;5.25;;;3.63;;
18973;SDS011;9621;48.690;9.466;2022-09-13T08:13:55;5.80;;;3.17;;
18973;SDS011;9621;48.690;9.466;2022-09-13T08:16:22;5.63;;;3.50;;
18973;SDS011;9621;48.690;9.466;2022-09-13T08:18:51;4.40;;;2.80;;
18973;SDS011;9621;48.690;9.466;2022-09-13T08:21:19;3.60;;;2.85;;
18973;SDS011;9621;48.690;9.466;2022-09-13T08:23:47;4.30;;;3.10;;
18973;SDS011;9621;48.690;9.466;2022-09-13T08:26:14;3.90;;;2.85;;
18973;SDS011;9621;48.690;9.466;2022-09-13T08:28:42;6.60;;;3.05;;
18973;SDS011;9621;48.690;9.466;2022-09-13T08:31:10;5.47;;;2.88;;
18973;SDS011;9621;48.690;9.466;2022-09-13T08:33:41;4.30;;;2.65;;
18973;SDS011;9621;48.690;9.466;2022-09-13T08:36:09;5.07;;;2.67;;
18973;SDS011;9621;48.690;9.466;2022-09-13T08:38:36;3.60;;;2.50;;
18973;SDS011;9621;48.690;9.466;2022-09-13T08:44:07;6.97;;;2.13;;
18973;SDS011;9621;48.690;9.466;2022-09-13T08:46:42;2.45;;;2.17;;
18973;SDS011;9621;48.690;9.466;2022-09-13T08:49:11;4.20;;;2.70;;
18973;SDS011;9621;48.690;9.466;2022-09-13T08:51:44;4.95;;;2.53;;
18973;SDS011;9621;48.690;9.466;2022-09-13T08:54:13;3.60;;;2.70;;
18973;SDS011;9621;48.690;9.466;2022-09-13T08:56:44;2.80;;;2.30;;
18973;SDS011;9621;48.690;9.466;2022-09-13T08:59:23;3.45;;;2.40;;
18973;SDS011;9621;48.690;9.466;2022-09-13T09:02:22;3.97;;;2.25;;
18973;SDS011;9621;48.690;9.466;2022-09-13T09:05:01;4.75;;;2.13;;
18973;SDS011;9621;48.690;9.466;2022-09-13T09:07:31;6.38;;;2.10;;
18973;SDS011;9621;48.690;9.466;2022-09-13T09:10:03;3.88;;;2.00;;
18973;SDS011;9621;48.690;9.466;2022-09-13T09:12:36;3.80;;;1.77;;
18973;SDS011;9621;48.690;9.466;2022-09-13T09:15:12;3.65;;;2.17;;
18973;SDS011;9621;48.690;9.466;2022-09-13T09:17:44;4.07;;;2.25;;
18973;SDS011;9621;48.690;9.466;2022-09-13T09:20:17;4.05;;;1.92;;
18973;SDS011;9621;48.690;9.466;2022-09-13T09:22:57;7.97;;;1.90;;
18973;SDS011;9621;48.690;9.466;2022-09-13T09:25:28;3.03;;;1.88;;
18973;SDS011;9621;48.690;9.466;2022-09-13T09:27:58;6.43;;;2.20;;
18973;SDS011;9621;48.690;9.466;2022-09-13T09:30:27;3.05;;;1.70;;
18973;SDS011;9621;48.690;9.466;2022-09-13T09:33:08;3.85;;;1.90;;
18973;SDS011;9621;48.690;9.466;2022-09-13T09:35:51;2.75;;;1.80;;
18973;SDS011;9621;48.690;9.466;2022-09-13T09:38:32;2.30;;;1.48;;
18973;SDS011;9621;48.690;9.466;2022-09-13T09:41:05;3.03;;;1.48;;
18973;SDS011;9621;48.690;9.466;2022-09-13T09:43:40;2.45;;;1.63;;
18973;SDS011;9621;48.690;9.466;2022-09-13T09:46:11;5.47;;;1.60;;
18973;SDS011;9621;48.690;9.466;2022-09-13T09:48:43;1.83;;;1.45;;
18973;SDS011;9621;48.690;9.466;2022-09-13T09:51:19;2.40;;;1.33;;
18973;SDS011;9621;48.690;9.466;2022-09-13T09:53:51;4.32;;;1.65;;
18973;SDS011;9621;48.690;9.466;2022-09-13T09:56:24;4.00;;;1.80;;
18973;SDS011;9621;48.690;9.466;2022-09-13T09:58:56;2.25;;;1.70;;
18973;SDS011;9621;48.690;9.466;2022-09-13T10:01:23;2.83;;;1.80;;
18973;SDS011;9621;48.690;9.466;2022-09-13T10:03:53;3.35;;;1.75;;
18973;SDS011;9621;48.690;9.466;2022-09-13T10:06:27;3.58;;;1.65;;
18973;SDS011;9621;48.690;9.466;2022-09-13T10:08:56;2.35;;;1.60;;
18973;SDS011;9621;48.690;9.466;2022-09-13T10:11:38;10.55;;;2.70;;
18973;SDS011;9621;48.690;9.466;2022-09-13T10:17:16;5.70;;;2.00;;
18973;SDS011;9621;48.690;9.466;2022-09-13T10:19:56;2.05;;;1.30;;
18973;SDS011;9621;48.690;9.466;2022-09-13T10:22:25;2.00;;;1.40;;
18973;SDS011;9621;48.690;9.466;2022-09-13T10:24:53;6.70;;;1.50;;
18973;SDS011;9621;48.690;9.466;2022-09-13T10:27:25;3.30;;;1.50;;
18973;SDS011;9621;48.690;9.466;2022-09-13T10:29:58;3.15;;;1.15;;
18973;SDS011;9621;48.690;9.466;2022-09-13T10:32:30;2.88;;;1.20;;
18973;SDS011;9621;48.690;9.466;2022-09-13T10:34:58;2.17;;;0.95;;
18973;SDS011;9621;48.690;9.466;2022-09-13T10:37:34;2.80;;;1.00;;
18973;SDS011;9621;48.690;9.466;2022-09-13T10:40:03;2.45;;;0.90;;
18973;SDS011;9621;48.690;9.466;2022-09-13T10:42:33;2.58;;;0.82;;
18973;SDS011;9621;48.690;9.466;2022-09-13T10:45:01;2.60;;;1.30;;
18973;SDS011;9621;48.690;9.466;2022-09-13T10:47:32;3.47;;;0.93;;
18973;SDS011;9621;48.690;9.466;2022-09-13T10:50:11;5.75;;;1.05;;
18973;SDS011;9621;48.690;9.466;2022-09-13T10:52:49;1.20;;;0.88;;
18973;SDS011;9621;48.690;9.466;2022-09-13T10:55:24;3.53;;;0.90;;
18973;SDS011;9621;48.690;9.466;2022-09-13T10:57:54;3.58;;;0.90;;
18973;SDS011;9621;48.690;9.466;2022-09-13T11:00:44;2.35;;;0.70;;
18973;SDS011;9621;48.690;9.466;2022-09-13T11:03:51;4.97;;;0.80;;
18973;SDS011;9621;48.690;9.466;2022-09-13T11:06:46;0.88;;;0.68;;
18973;SDS011;9621;48.690;9.466;2022-09-13T11:09:20;0.93;;;0.70;;
18973;SDS011;9621;48.690;9.466;2022-09-13T11:11:55;2.03;;;0.68;;
18973;SDS011;9621;48.690;9.466;2022-09-13T11:14:36;1.88;;;0.65;;
18973;SDS011;9621;48.690;9.466;2022-09-13T11:17:13;0.85;;;0.70;;
18973;SDS011;9621;48.690;9.466;2022-09-13T11:19:57;1.33;;;0.60;;
18973;SDS011;9621;48.690;9.466;2022-09-13T11:25:38;1.08;;;0.80;;
18973;SDS011;9621;48.690;9.466;2022-09-13T11:28:17;1.17;;;0.70;;
18973;SDS011;9621;48.690;9.466;2022-09-13T11:30:55;0.85;;;0.70;;
18973;SDS011;9621;48.690;9.466;2022-09-13T11:33:37;1.48;;;0.52;;
18973;SDS011;9621;48.690;9.466;2022-09-13T11:36:21;0.47;;;0.47;;
18973;SDS011;9621;48.690;9.466;2022-09-13T11:39:07;2.05;;;0.50;;
18973;SDS011;9621;48.690;9.466;2022-09-13T11:41:45;3.22;;;0.80;;
18973;SDS011;9621;48.690;9.466;2022-09-13T11:44:24;2.58;;;0.68;;
18973;SDS011;9621;48.690;9.466;2022-09-13T11:47:14;3.47;;;0.60;;
18973;SDS011;9621;48.690;9.466;2022-09-13T11:49:56;0.75;;;0.65;;
18973;SDS011;9621;48.690;9.466;2022-09-13T11:52:39;1.55;;;0.50;;
18973;SDS011;9621;48.690;9.466;2022-09-13T11:55:14;0.70;;;0.52;;
18973;SDS011;9621;48.690;9.466;2022-09-13T11:57:44;2.63;;;0.70;;
18973;SDS011;9621;48.690;9.466;2022-09-13T12:00:18;0.65;;;0.60;;
18973;SDS011;9621;48.690;9.466;2022-09-13T12:02:49;0.70;;;0.68;;
18973;SDS011;9621;48.690;9.466;2022-09-13T12:05:23;3.58;;;0.75;;
18973;SDS011;9621;48.690;9.466;2022-09-13T12:07:55;1.75;;;0.57;;
18973;SDS011;9621;48.690;9.466;2022-09-13T12:10:27;1.50;;;0.70;;
18973;SDS011;9621;48.690;9.466;2022-09-13T12:12:59;2.03;;;0.80;;
18973;SDS011;9621;48.690;9.466;2022-09-13T12:15:31;1.10;;;0.70;;
18973;SDS011;9621;48.690;9.466;2022-09-13T12:18:03;0.65;;;0.60;;
18973;SDS011;9621;48.690;9.466;2022-09-13T12:20:37;1.20;;;0.80;;
18973;SDS011;9621;48.690;9.466;2022-09-13T12:23:11;1.05;;;0.80;;
18973;SDS011;9621;48.690;9.466;2022-09-13T12:25:43;1.15;;;0.70;;
18973;SDS011;9621;48.690;9.466;2022-09-13T12:28:17;2.85;;;0.90;;
18973;SDS011;9621;48.690;9.466;2022-09-13T12:30:49;5.97;;;0.70;;
18973;SDS011;9621;48.690;9.466;2022-09-13T12:33:19;2.55;;;0.70;;
18973;SDS011;9621;48.690;9.466;2022-09-13T12:35:49;0.93;;;0.70;;
18973;SDS011;9621;48.690;9.466;2022-09-13T12:38:32;1.10;;;0.52;;
18973;SDS011;9621;48.690;9.466;2022-09-13T12:41:19;0.70;;;0.70;;
18973;SDS011;9621;48.690;9.466;2022-09-13T12:44:00;0.80;;;0.65;;
18973;SDS011;9621;48.690;9.466;2022-09-13T12:46:54;1.00;;;0.52;;
18973;SDS011;9621;48.690;9.466;2022-09-13T12:49:39;1.58;;;0.73;;
18973;SDS011;9621;48.690;9.466;2022-09-13T12:52:23;1.20;;;0.73;;
18973;SDS011;9621;48.690;9.466;2022-09-13T12:57:56;0.85;;;0.60;;
18973;SDS011;9621;48.690;9.466;2022-09-13T13:00:36;1.23;;;0.80;;
18973;SDS011;9621;48.690;9.466;2022-09-13T13:03:11;2.47;;;0.60;;
18973;SDS011;9621;48.690;9.466;2022-09-13T13:05:42;2.00;;;0.60;;
18973;SDS011;9621;48.690;9.466;2022-09-13T13:08:23;0.63;;;0.50;;
18973;SDS011;9621;48.690;9.466;2022-09-13T13:11:02;3.17;;;0.77;;
18973;SDS011;9621;48.690;9.466;2022-09-13T13:13:34;0.55;;;0.52;;
18973;SDS011;9621;48.690;9.466;2022-09-13T13:16:05;1.27;;;0.68;;
18973;SDS011;9621;48.690;9.466;2022-09-13T13:18:48;1.17;;;0.68;;
18973;SDS011;9621;48.690;9.466;2022-09-13T13:33:16;3.97;;;0.70;;
18973;SDS011;9621;48.690;9.466;2022-09-13T13:35:45;1.05;;;0.60;;
18973;SDS011;9621;48.690;9.466;2022-09-13T13:38:13;2.75;;;0.52;;
18973;SDS011;9621;48.690;9.466;2022-09-13T13:41:07;1.92;;;0.50;;
18973;SDS011;9621;48.690;9.466;2022-09-13T13:43:49;2.03;;;0.45;;
18973;SDS011;9621;48.690;9.466;2022-09-13T13:46:26;2.03;;;0.55;;
18973;SDS011;9621;48.690;9.466;2022-09-13T13:48:56;0.93;;;0.60;;
18973;SDS011;9621;48.690;9.466;2022-09-13T13:52:33;1.45;;;0.50;;
18973;SDS011;9621;48.690;9.466;2022-09-13T13:55:02;0.73;;;0.57;;
18973;SDS011;9621;48.690;9.466;2022-09-13T13:57:57;1.48;;;0.50;;
18973;SDS011;9621;48.690;9.466;2022-09-13T14:00:27;1.23;;;0.70;;
18973;SDS011;9621;48.690;9.466;2022-09-13T14:03:02;1.13;;;0.43;;
18973;SDS011;9621;48.690;9.466;2022-09-13T14:05:42;1.52;;;0.60;;
18973;SDS011;9621;48.690;9.466;2022-09-13T14:08:28;1.80;;;0.70;;
18973;SDS011;9621;48.690;9.466;2022-09-13T14:11:07;1.27;;;0.60;;
18973;SDS011;9621;48.690;9.466;2022-09-13T14:13:49;0.60;;;0.57;;
18973;SDS011;9621;48.690;9.466;2022-09-13T14:16:28;1.38;;;0.70;;
18973;SDS011;9621;48.690;9.466;2022-09-13T14:19:08;1.80;;;0.45;;
18973;SDS011;9621;48.690;9.466;2022-09-13T14:21:44;0.77;;;0.50;;
18973;SDS011;9621;48.690;9.466;2022-09-13T14:24:15;0.65;;;0.52;;
18973;SDS011;9621;48.690;9.466;2022-09-13T14:26:45;2.08;;;1.20;;
18973;SDS011;9621;48.690;9.466;2022-09-13T14:29:14;2.53;;;0.70;;
18973;SDS011;9621;48.690;9.466;2022-09-13T14:31:44;1.17;;;0.80;;
18973;SDS011;9621;48.690;9.466;2022-09-13T14:34:19;1.60;;;0.70;;
18973;SDS011;9621;48.690;9.466;2022-09-13T14:36:52;0.88;;;0.60;;
18973;SDS011;9621;48.690;9.466;2022-09-13T14:39:21;2.17;;;1.00;;
18973;SDS011;9621;48.690;9.466;2022-09-13T14:41:56;0.60;;;0.52;;
18973;SDS011;9621;48.690;9.466;2022-09-13T14:44:26;4.63;;;0.80;;
18973;SDS011;9621;48.690;9.466;2022-09-13T14:46:54;2.20;;;0.70;;
18973;SDS011;9621;48.690;9.466;2022-09-13T14:49:30;2.15;;;0.90;;
18973;SDS011;9621;48.690;9.466;2022-09-13T14:52:01;4.60;;;0.70;;
18973;SDS011;9621;48.690;9.466;2022-09-13T14:54:32;1.77;;;0.70;;
18973;SDS011;9621;48.690;9.466;2022-09-13T14:57:05;5.20;;;0.70;;
18973;SDS011;9621;48.690;9.466;2022-09-13T14:59:41;2.15;;;0.80;;
18973;SDS011;9621;48.690;9.466;2022-09-13T15:02:15;3.63;;;0.80;;
18973;SDS011;9621;48.690;9.466;2022-09-13T15:04:47;3.13;;;1.17;;
18973;SDS011;9621;48.690;9.466;2022-09-13T15:07:20;0.77;;;0.60;;
18973;SDS011;9621;48.690;9.466;2022-09-13T15:09:54;22.85;;;2.28;;
18973;SDS011;9621;48.690;9.466;2022-09-13T15:12:26;8.30;;;1.20;;
18973;SDS011;9621;48.690;9.466;2022-09-13T15:15:18;1.27;;;0.95;;
18973;SDS011;9621;48.690;9.466;2022-09-13T15:18:02;15.63;;;2.30;;
18973;SDS011;9621;48.690;9.466;2022-09-13T15:20:43;20.92;;;3.63;;
18973;SDS011;9621;48.690;9.466;2022-09-13T15:23:13;2.97;;;1.15;;
18973;SDS011;9621;48.690;9.466;2022-09-13T15:25:46;1.65;;;0.60;;
18973;SDS011;9621;48.690;9.466;2022-09-13T15:28:20;2.17;;;0.77;;
18973;SDS011;9621;48.690;9.466;2022-09-13T15:30:50;3.00;;;0.70;;
18973;SDS011;9621;48.690;9.466;2022-09-13T15:33:21;2.80;;;1.00;;
18973;SDS011;9621;48.690;9.466;2022-09-13T15:35:50;2.90;;;0.80;;
18973;SDS011;9621;48.690;9.466;2022-09-13T15:38:22;3.58;;;0.90;;
18973;SDS011;9621;48.690;9.466;2022-09-13T15:40:57;3.67;;;1.00;;
18973;SDS011;9621;48.690;9.466;2022-09-13T15:43:38;5.88;;;0.85;;
18973;SDS011;9621;48.690;9.466;2022-09-13T15:46:05;1.85;;;0.65;;
18973;SDS011;9621;48.690;9.466;2022-09-13T15:48:32;3.90;;;0.90;;
18973;SDS011;9621;48.690;9.466;2022-09-13T15:51:03;5.30;;;1.80;;
18973;SDS011;9621;48.690;9.466;2022-09-13T15:53:32;2.75;;;0.90;;
18973;SDS011;9621;48.690;9.466;2022-09-13T15:56:00;2.50;;;0.60;;
18973;SDS011;9621;48.690;9.466;2022-09-13T15:58:29;1.38;;;0.82;;
18973;SDS011;9621;48.690;9.466;2022-09-13T16:00:58;0.82;;;0.75;;
18973;SDS011;9621;48.690;9.466;2022-09-13T16:03:25;1.90;;;0.77;;